Time;durP1;ratioP1;P1;durP2;ratioP2;P2;SDS_P1;SDS_P2;PMS_P1;PMS_P2;Temp;Humidity;BMP_temperature;BMP_pressure;BME280_temperature;BME280_humidity;BME280_pressure;Samples;Min_cycle;Max_cycle;Signal;HPM_P1;HPM_P2
2024/01/14 00:01:01;;;;;;;22.20;16.43;;;;;;;-1.73;100.00;145638.69;5091708;28;20204;-54
2024/01/14 00:03:28;;;;;;;25.50;16.67;;;;;;;-1.52;100.00;145689.97;5091816;28;20580;-55
2024/01/14 00:05:56;;;;;;;26.50;17.03;;;;;;;-1.48;100.00;145699.97;5091385;28;20184;-55
2024/01/14 00:08:25;;;;;;;33.40;18.07;;;;;;;-1.44;100.00;145711.22;5091637;28;20257;-55
2024/01/14 00:10:52;;;;;;;23.20;16.23;;;;;;;-1.44;100.00;145711.22;5091697;28;20604;-55
2024/01/14 00:13:19;;;;;;;27.37;17.37;;;;;;;-1.46;100.00;145706.25;5095135;28;20177;-56
2024/01/14 00:15:46;;;;;;;24.20;16.47;;;;;;;-1.50;100.00;145694.97;5095475;28;20208;-56
2024/01/14 00:18:13;;;;;;;27.27;16.03;;;;;;;-1.61;100.00;145668.69;5095539;28;20188;-54
2024/01/14 00:20:40;;;;;;;24.03;16.93;;;;;;;-1.56;100.00;145679.94;5095158;28;20199;-56
2024/01/14 00:23:08;;;;;;;24.63;16.90;;;;;;;-1.60;100.00;145671.22;5095588;28;20569;-57
2024/01/14 00:25:35;;;;;;;25.27;17.77;;;;;;;-1.62;100.00;145666.22;5095288;28;20202;-57
2024/01/14 00:28:03;;;;;;;30.23;19.43;;;;;;;-1.70;100.00;145646.22;5095092;28;20569;-56
2024/01/14 00:30:30;;;;;;;29.17;19.17;;;;;;;-1.60;100.00;145669.94;5095274;28;20692;-56
2024/01/14 00:32:57;;;;;;;28.53;17.37;;;;;;;-1.61;100.00;145667.50;5094977;28;20180;-56
2024/01/14 00:35:25;;;;;;;27.63;18.97;;;;;;;-1.69;100.00;145648.69;5095232;28;20195;-56
2024/01/14 00:37:52;;;;;;;30.87;19.13;;;;;;;-1.57;100.00;145677.50;5095119;28;20630;-56
2024/01/14 00:40:21;;;;;;;29.27;19.23;;;;;;;-1.54;100.00;145684.97;5094694;28;20249;-54
2024/01/14 00:42:48;;;;;;;31.53;20.13;;;;;;;-1.50;100.00;145696.25;5094983;28;20200;-57
2024/01/14 00:45:15;;;;;;;39.80;20.57;;;;;;;-1.49;100.00;145697.50;5094652;28;20192;-55
2024/01/14 00:47:42;;;;;;;37.77;21.87;;;;;;;-1.53;100.00;145687.50;5094727;28;20233;-56
2024/01/14 00:50:10;;;;;;;42.73;21.57;;;;;;;-1.75;100.00;145633.69;5094572;28;20272;-54
2024/01/14 00:52:37;;;;;;;41.53;22.00;;;;;;;-1.60;100.00;145669.94;5094615;28;20183;-55
2024/01/14 00:55:05;;;;;;;35.73;21.87;;;;;;;-1.73;100.00;145638.69;5094641;28;20612;-56
2024/01/14 00:57:33;;;;;;;37.00;22.47;;;;;;;-1.76;100.00;145631.19;5094797;28;20184;-56
2024/01/14 01:00:03;;;;;;;31.37;21.77;;;;;;;-1.70;100.00;145646.22;5094691;28;20589;-54
2024/01/14 01:02:30;;;;;;;41.17;22.77;;;;;;;-1.70;100.00;145646.22;5094918;28;20196;-56
2024/01/14 01:04:57;;;;;;;40.03;23.37;;;;;;;-1.66;100.00;145654.97;5094386;28;20188;-55
2024/01/14 01:07:24;;;;;;;35.77;22.20;;;;;;;-1.73;100.00;145637.44;5094665;28;20241;-57
2024/01/14 01:09:51;;;;;;;45.43;24.17;;;;;;;-1.69;100.00;145648.69;5094511;28;20596;-56
2024/01/14 01:12:18;;;;;;;39.67;23.53;;;;;;;-1.75;100.00;145633.69;5094164;28;20246;-55
2024/01/14 01:14:47;;;;;;;38.17;23.13;;;;;;;-1.70;100.00;145644.97;5094496;28;20711;-55
2024/01/14 01:17:14;;;;;;;49.93;24.47;;;;;;;-1.83;100.00;145613.69;5094337;28;20275;-57
2024/01/14 01:19:41;;;;;;;55.70;25.30;;;;;;;-1.80;100.00;145621.19;5094006;28;20337;-56
2024/01/14 01:22:08;;;;;;;42.40;24.93;;;;;;;-1.78;100.00;145626.16;5094008;28;20628;-57
2024/01/14 01:24:37;;;;;;;46.97;27.33;;;;;;;-1.94;100.00;145586.16;5092879;28;20184;-56
2024/01/14 01:27:05;;;;;;;48.87;27.87;;;;;;;-1.80;100.00;145621.19;5094337;28;20200;-55
2024/01/14 01:29:32;;;;;;;56.43;32.33;;;;;;;-1.80;100.00;145619.94;5093902;28;20180;-54
2024/01/14 01:32:00;;;;;;;52.57;30.87;;;;;;;-2.00;100.00;145571.19;5094327;28;20188;-55
2024/01/14 01:34:27;;;;;;;53.27;31.40;;;;;;;-1.79;100.00;145622.44;5094222;28;20620;-55
2024/01/14 01:36:55;;;;;;;60.27;31.60;;;;;;;-1.74;100.00;145634.97;5094160;28;20416;-54
2024/01/14 01:39:22;;;;;;;56.50;31.30;;;;;;;-1.76;100.00;145631.19;5093734;28;20184;-56
2024/01/14 01:41:49;;;;;;;60.13;32.57;;;;;;;-1.66;100.00;145656.22;5093620;28;20200;-56
2024/01/14 01:44:16;;;;;;;59.00;31.07;;;;;;;-1.64;100.00;145661.19;5093600;28;20195;-56
2024/01/14 01:46:43;;;;;;;60.93;32.30;;;;;;;-1.58;100.00;145676.22;5093463;28;20188;-57
2024/01/14 01:49:12;;;;;;;55.67;30.07;;;;;;;-1.97;100.00;145579.94;5093488;28;20184;-54
2024/01/14 01:51:41;;;;;;;63.57;31.63;;;;;;;-1.83;100.00;145613.69;5093760;28;20579;-57
2024/01/14 01:54:09;;;;;;;57.43;31.63;;;;;;;-1.96;100.00;145581.19;5093451;28;20303;-56
2024/01/14 01:56:38;;;;;;;51.40;30.20;;;;;;;-1.90;100.00;145596.16;5093416;28;20271;-55
2024/01/14 01:59:06;;;;;;;56.77;32.73;;;;;;;-1.81;100.00;145617.41;5093289;28;20279;-55
2024/01/14 02:01:34;;;;;;;60.47;32.17;;;;;;;-2.01;100.00;145569.94;5093167;28;20219;-54
2024/01/14 02:04:03;;;;;;;70.90;35.30;;;;;;;-1.90;100.00;145596.16;5093172;28;20218;-55
2024/01/14 02:06:33;;;;;;;64.93;33.57;;;;;;;-1.99;100.00;145574.91;5093202;28;20180;-55
2024/01/14 02:09:00;;;;;;;57.90;32.57;;;;;;;-1.94;100.00;145586.16;5093169;28;20230;-55
2024/01/14 02:11:26;;;;;;;66.97;35.30;;;;;;;-2.09;100.00;145549.94;5093390;28;20184;-55
2024/01/14 02:13:53;;;;;;;62.63;35.27;;;;;;;-2.36;100.00;145483.66;5092978;28;20243;-55
2024/01/14 02:16:21;;;;;;;66.17;34.57;;;;;;;-2.48;100.00;145453.66;5093281;28;20602;-55
2024/01/14 02:18:48;;;;;;;69.60;36.13;;;;;;;-2.90;100.00;145348.69;5093222;28;20234;-55
2024/01/14 02:21:20;;;;;;;60.03;33.10;;;;;;;-2.81;100.00;145371.19;5092789;28;20269;-56
2024/01/14 02:24:00;;;;;;;52.07;31.77;;;;;;;-2.97;100.00;145331.22;5093131;28;20180;-54
2024/01/14 02:26:29;;;;;;;54.23;30.97;;;;;;;-2.92;100.00;145343.69;5093040;28;20191;-55
2024/01/14 02:28:56;;;;;;;59.63;33.97;;;;;;;-2.78;100.00;145379.94;5092651;28;20181;-55
2024/01/14 02:31:24;;;;;;;61.07;30.67;;;;;;;-2.68;100.00;145403.69;5092914;28;20619;-56
2024/01/14 02:33:51;;;;;;;63.77;33.33;;;;;;;-2.68;100.00;145403.69;5092459;28;20184;-55
2024/01/14 02:36:18;;;;;;;58.17;30.70;;;;;;;-2.63;100.00;145414.94;5092655;28;20245;-55
2024/01/14 02:38:45;;;;;;;61.60;32.40;;;;;;;-2.51;100.00;145446.19;5092638;28;20233;-57
2024/01/14 02:41:12;;;;;;;52.20;30.17;;;;;;;-2.47;100.00;145456.16;5092471;28;20253;-57
2024/01/14 02:43:40;;;;;;;67.70;31.63;;;;;;;-2.33;100.00;145491.13;5092797;28;20265;-55
2024/01/14 02:46:07;;;;;;;56.70;30.87;;;;;;;-2.43;100.00;145464.91;5092353;28;20191;-55
2024/01/14 02:48:34;;;;;;;51.87;29.30;;;;;;;-2.68;100.00;145403.69;5092430;28;20188;-54
2024/01/14 02:51:02;;;;;;;51.00;28.33;;;;;;;-2.79;100.00;145376.16;5092476;28;20195;-54
2024/01/14 02:53:29;;;;;;;53.43;26.57;;;;;;;-2.85;100.00;145361.19;5092617;28;20215;-56
2024/01/14 02:55:56;;;;;;;43.83;24.57;;;;;;;-2.97;100.00;145331.22;5092102;28;20231;-54
2024/01/14 02:58:24;;;;;;;51.40;27.33;;;;;;;-2.64;100.00;145412.44;5092280;28;20192;-55
2024/01/14 03:00:54;;;;;;;43.03;26.10;;;;;;;-2.56;100.00;145432.41;5092465;28;20200;-57
2024/01/14 03:03:21;;;;;;;48.77;24.83;;;;;;;-2.59;100.00;145426.19;5092484;28;20567;-55
2024/01/14 03:05:48;;;;;;;40.10;24.23;;;;;;;-2.50;100.00;145448.63;5092096;28;20184;-54
2024/01/14 03:08:17;;;;;;;41.13;24.50;;;;;;;-2.54;100.00;145437.38;5092424;28;20304;-55
2024/01/14 03:10:44;;;;;;;31.97;22.23;;;;;;;-2.48;100.00;145453.66;5092158;28;20250;-54
2024/01/14 03:13:14;;;;;;;39.67;22.70;;;;;;;-2.64;100.00;145412.44;5092137;28;20200;-56
2024/01/14 03:15:41;;;;;;;38.27;23.73;;;;;;;-2.66;100.00;145407.41;5092213;28;20184;-55
2024/01/14 03:18:09;;;;;;;38.93;23.77;;;;;;;-2.59;100.00;145426.19;5091856;28;20188;-55
2024/01/14 03:20:37;;;;;;;34.73;21.97;;;;;;;-2.64;100.00;145413.69;5092132;28;20204;-56
2024/01/14 03:23:04;;;;;;;39.87;23.60;;;;;;;-2.46;100.00;145458.63;5091911;28;20191;-55
2024/01/14 03:25:31;;;;;;;41.80;22.87;;;;;;;-2.58;100.00;145427.38;5091936;28;20192;-56
2024/01/14 03:27:59;;;;;;;46.47;24.77;;;;;;;-2.53;100.00;145439.91;5092208;28;20495;-55
2024/01/14 03:30:26;;;;;;;37.93;23.93;;;;;;;-2.48;100.00;145453.66;5092129;28;20712;-55
2024/01/14 03:32:53;;;;;;;48.57;26.13;;;;;;;-2.61;100.00;145419.91;5092051;28;20241;-56
2024/01/14 03:35:21;;;;;;;44.80;26.37;;;;;;;-2.38;100.00;145478.63;5091880;28;20204;-55
2024/01/14 03:37:49;;;;;;;43.40;25.40;;;;;;;-2.24;100.00;145511.13;5091751;28;20327;-55
2024/01/14 03:40:16;;;;;;;39.70;24.50;;;;;;;-2.27;100.00;145503.66;5091856;28;20702;-55
2024/01/14 03:42:43;;;;;;;43.67;24.57;;;;;;;-2.32;100.00;145492.41;5091967;28;20188;-56
2024/01/14 03:45:10;;;;;;;41.13;24.50;;;;;;;-2.41;100.00;145471.16;5091839;28;20217;-55
2024/01/14 03:47:37;;;;;;;49.60;26.47;;;;;;;-2.24;100.00;145512.38;5094614;28;20231;-58
2024/01/14 03:50:05;;;;;;;39.77;23.93;;;;;;;-2.18;100.00;145527.41;5096129;28;20612;-56
2024/01/14 03:52:33;;;;;;;50.47;25.73;;;;;;;-2.25;100.00;145508.66;5095807;28;20225;-56
2024/01/14 03:55:00;;;;;;;44.63;25.30;;;;;;;-2.22;100.00;145517.41;5095590;28;20232;-55
2024/01/14 03:57:27;;;;;;;40.00;25.23;;;;;;;-2.40;100.00;145473.66;5096008;28;20600;-56
2024/01/14 03:59:54;;;;;;;45.70;25.23;;;;;;;-2.71;100.00;145394.91;5095978;28;20646;-54
2024/01/14 04:02:21;;;;;;;42.10;24.10;;;;;;;-2.99;100.00;145327.47;5095526;28;20208;-56
2024/01/14 04:04:48;;;;;;;43.07;24.63;;;;;;;-2.93;100.00;145341.22;5095617;28;20241;-55
2024/01/14 04:07:15;;;;;;;39.03;23.30;;;;;;;-2.74;100.00;145388.66;5095553;28;20191;-55
2024/01/14 04:09:44;;;;;;;48.57;27.13;;;;;;;-2.73;100.00;145389.94;5095413;28;20188;-55
2024/01/14 04:12:11;;;;;;;44.63;24.63;;;;;;;-2.81;100.00;145371.19;5095375;28;20187;-55
2024/01/14 04:14:38;;;;;;;35.60;22.37;;;;;;;-2.81;100.00;145371.19;5095660;28;20278;-55
2024/01/14 04:17:05;;;;;;;39.73;23.23;;;;;;;-2.72;100.00;145393.69;5095286;28;20237;-55
2024/01/14 04:19:32;;;;;;;39.00;23.47;;;;;;;-2.78;100.00;145379.94;5095903;28;20187;-57
2024/01/14 04:21:59;;;;;;;38.90;22.50;;;;;;;-2.64;100.00;145412.44;5095079;28;20214;-56
2024/01/14 04:24:26;;;;;;;37.93;21.53;;;;;;;-2.74;100.00;145387.41;5095842;28;20249;-54
2024/01/14 04:26:55;;;;;;;32.33;21.13;;;;;;;-2.63;100.00;145416.16;5095675;28;20196;-55
2024/01/14 04:29:22;;;;;;;37.93;22.87;;;;;;;-2.63;100.00;145414.94;5095336;28;20642;-55
2024/01/14 04:31:49;;;;;;;39.00;22.17;;;;;;;-2.36;100.00;145483.66;5095050;28;20223;-55
2024/01/14 04:34:16;;;;;;;30.43;20.53;;;;;;;-2.31;100.00;145494.91;5095030;28;20180;-56
2024/01/14 04:36:43;;;;;;;39.10;23.73;;;;;;;-2.21;100.00;145518.66;5095297;28;20711;-55
2024/01/14 04:39:10;;;;;;;36.33;21.80;;;;;;;-2.15;100.00;145533.66;5094874;28;20554;-54
2024/01/14 04:41:38;;;;;;;36.73;20.90;;;;;;;-2.28;100.00;145502.41;5095058;28;20218;-55
2024/01/14 04:44:06;;;;;;;39.00;21.47;;;;;;;-2.18;100.00;145526.16;5094848;28;20207;-56
2024/01/14 04:46:33;;;;;;;30.33;19.23;;;;;;;-2.06;100.00;145556.16;5094660;28;20228;-56
2024/01/14 04:49:01;;;;;;;35.60;21.03;;;;;;;-2.01;100.00;145569.94;5094958;28;20611;-55
2024/01/14 04:51:28;;;;;;;26.60;18.93;;;;;;;-2.08;100.00;145551.19;5094676;28;20185;-56
2024/01/14 04:53:55;;;;;;;31.50;19.63;;;;;;;-2.02;100.00;145566.16;5094536;28;20570;-55
2024/01/14 04:56:22;;;;;;;27.87;19.57;;;;;;;-2.09;100.00;145549.94;5094549;28;20192;-58
2024/01/14 04:58:49;;;;;;;31.13;20.43;;;;;;;-2.12;100.00;145542.38;5094147;28;20261;-55
2024/01/14 05:01:17;;;;;;;36.93;20.53;;;;;;;-2.06;100.00;145556.16;5094714;28;20204;-55
2024/01/14 05:03:44;;;;;;;29.17;20.17;;;;;;;-2.25;100.00;145508.66;5094745;28;20688;-54
2024/01/14 05:06:11;;;;;;;31.90;19.20;;;;;;;-2.11;100.00;145543.66;5094297;28;20184;-56
2024/01/14 05:08:42;;;;;;;29.17;19.23;;;;;;;-2.23;100.00;145513.66;5094673;28;20188;-56
2024/01/14 05:11:09;;;;;;;33.77;19.57;;;;;;;-2.02;100.00;145566.16;5094321;28;20634;-56
2024/01/14 05:13:36;;;;;;;31.13;20.20;;;;;;;-2.17;100.00;145528.66;5094522;28;20184;-55
2024/01/14 05:16:04;;;;;;;32.93;18.93;;;;;;;-2.05;100.00;145558.66;5094180;28;20184;-55
2024/01/14 05:18:32;;;;;;;33.90;19.73;;;;;;;-2.01;100.00;145568.66;5094185;28;20184;-55
2024/01/14 05:20:59;;;;;;;32.37;19.67;;;;;;;-2.02;100.00;145566.16;5094029;28;20208;-57
2024/01/14 05:23:26;;;;;;;31.07;19.33;;;;;;;-2.02;100.00;145566.16;5094096;28;20180;-55
2024/01/14 05:25:53;;;;;;;32.13;19.67;;;;;;;-1.96;100.00;145581.19;5094155;28;20192;-58
2024/01/14 05:28:20;;;;;;;27.97;19.63;;;;;;;-1.85;100.00;145609.94;5094264;28;20184;-57
2024/01/14 05:30:48;;;;;;;27.00;18.60;;;;;;;-1.76;100.00;145629.94;5093987;28;20200;-56
2024/01/14 05:33:15;;;;;;;27.30;19.63;;;;;;;-1.78;100.00;145626.16;5093849;28;20188;-56
2024/01/14 05:35:44;;;;;;;27.53;19.00;;;;;;;-1.64;100.00;145659.94;5093805;28;20213;-55
2024/01/14 05:38:11;;;;;;;27.67;18.50;;;;;;;-1.86;100.00;145606.16;5093764;28;20274;-55
2024/01/14 05:40:38;;;;;;;31.83;19.23;;;;;;;-2.03;100.00;145564.91;5093771;28;20233;-56
2024/01/14 05:43:06;;;;;;;25.57;17.97;;;;;;;-1.97;100.00;145579.94;5093933;28;20211;-56
2024/01/14 05:45:33;;;;;;;28.90;19.20;;;;;;;-2.15;100.00;145533.66;5093934;28;20631;-55
2024/01/14 05:48:00;;;;;;;33.53;18.80;;;;;;;-2.00;100.00;145571.19;5093929;28;20543;-57
2024/01/14 05:50:27;;;;;;;34.73;19.43;;;;;;;-2.01;100.00;145569.94;5093778;28;20188;-55
2024/01/14 05:52:55;;;;;;;34.40;19.07;;;;;;;-1.90;100.00;145597.41;5093861;28;20271;-56
2024/01/14 05:55:23;;;;;;;31.87;19.10;;;;;;;-1.76;100.00;145631.19;5093468;28;20232;-57
2024/01/14 05:57:50;;;;;;;41.10;22.60;;;;;;;-1.67;100.00;145652.47;5093318;28;20194;-56
2024/01/14 06:00:22;;;;;;;33.67;21.67;;;;;;;-1.80;100.00;145619.94;5093634;28;20622;-55
2024/01/14 06:02:49;;;;;;;36.67;20.90;;;;;;;-1.90;100.00;145597.41;5093208;28;20211;-55
2024/01/14 06:05:16;;;;;;;36.30;21.40;;;;;;;-2.26;100.00;145506.16;5093242;28;20188;-55
2024/01/14 06:07:43;;;;;;;34.90;20.43;;;;;;;-1.97;100.00;145579.94;5093227;28;20595;-56
2024/01/14 06:10:12;;;;;;;34.83;21.53;;;;;;;-1.99;100.00;145573.66;5092420;28;20188;-56
2024/01/14 06:12:39;;;;;;;34.60;20.50;;;;;;;-1.94;100.00;145586.16;5093417;28;20604;-55
2024/01/14 06:15:07;;;;;;;30.43;19.80;;;;;;;-1.89;100.00;145598.66;5093415;28;20562;-56
2024/01/14 06:17:34;;;;;;;31.13;20.93;;;;;;;-1.50;100.00;145694.97;5093049;28;20188;-55
2024/01/14 06:20:01;;;;;;;34.03;21.30;;;;;;;-1.19;100.00;145772.53;5093304;28;20238;-57
2024/01/14 06:22:28;;;;;;;31.87;20.60;;;;;;;-0.57;100.00;145926.50;5092923;28;20208;-55
2024/01/14 06:24:55;;;;;;;42.50;20.77;;;;;;;-0.19;100.00;146020.44;5092939;28;20192;-56
2024/01/14 06:27:23;;;;;;;36.33;20.93;;;;;;;0.39;100.00;146163.22;5092768;28;20261;-57
2024/01/14 06:29:50;;;;;;;26.47;19.90;;;;;;;0.83;100.00;146273.53;5093118;28;20187;-56
2024/01/14 06:32:17;;;;;;;37.97;22.00;;;;;;;1.11;100.00;146342.47;5093001;28;20187;-56
2024/01/14 06:34:44;;;;;;;28.40;21.17;;;;;;;1.07;100.00;146332.44;5093002;28;20572;-56
2024/01/14 06:37:11;;;;;;;43.37;22.40;;;;;;;1.57;100.00;146455.38;5092912;28;20234;-57
2024/01/14 06:39:38;;;;;;;37.53;22.60;;;;;;;2.03;100.00;146570.81;5092549;28;20199;-57
2024/01/14 06:42:06;;;;;;;35.70;22.37;;;;;;;2.67;100.00;146728.97;5092502;28;20208;-56
2024/01/14 06:44:34;;;;;;;33.30;22.87;;;;;;;3.16;100.00;146852.06;5092548;28;20183;-57
2024/01/14 06:47:01;;;;;;;34.30;22.00;;;;;;;3.29;100.00;146882.19;5092767;28;20183;-57
2024/01/14 06:49:28;;;;;;;34.17;23.53;;;;;;;3.52;100.00;146940.00;5092453;28;20644;-56
2024/01/14 06:51:55;;;;;;;35.37;23.70;;;;;;;3.71;100.00;146987.75;5092718;28;20184;-56
2024/01/14 06:54:23;;;;;;;34.90;24.17;;;;;;;4.26;100.00;147124.78;5092389;28;20274;-56
2024/01/14 06:56:50;;;;;;;42.33;24.90;;;;;;;4.11;98.73;147087.06;5092650;28;20578;-57
2024/01/14 06:59:19;;;;;;;31.30;22.20;;;;;;;3.78;100.00;147005.31;5092316;28;20184;-56
2024/01/14 07:01:47;;;;;;;32.07;22.93;;;;;;;4.78;99.74;147254.31;5092117;28;20295;-56
2024/01/14 07:04:15;;;;;;;34.67;23.13;;;;;;;4.74;94.57;147243.00;5092190;28;20188;-57
2024/01/14 07:06:42;;;;;;;33.10;22.83;;;;;;;4.41;96.01;147161.25;5092182;28;20192;-56
2024/01/14 07:09:10;;;;;;;38.20;24.37;;;;;;;4.56;95.87;147198.97;5092005;28;20249;-56
2024/01/14 07:11:38;;;;;;;39.90;24.23;;;;;;;5.27;92.34;147375.09;5092397;28;20183;-58
2024/01/14 07:14:05;;;;;;;41.47;24.80;;;;;;;5.39;90.71;147405.28;5092015;28;20206;-56
2024/01/14 07:16:32;;;;;;;35.83;23.40;;;;;;;5.79;87.53;147506.00;5092225;28;20237;-56
2024/01/14 07:19:00;;;;;;;37.20;23.73;;;;;;;5.78;88.44;147503.47;5091992;28;20180;-56
2024/01/14 07:21:27;;;;;;;30.93;22.07;;;;;;;6.48;83.62;147677.34;5092064;28;20184;-57
2024/01/14 07:23:55;;;;;;;30.97;21.73;;;;;;;6.77;81.38;147749.16;5092258;28;20188;-58
2024/01/14 07:26:22;;;;;;;26.00;20.63;;;;;;;6.59;82.51;147705.06;5092079;28;20204;-55
2024/01/14 07:28:51;;;;;;;22.63;18.63;;;;;;;7.99;77.28;148054.25;5091777;28;20270;-56
2024/01/14 07:31:21;;;;;;;25.47;19.57;;;;;;;8.59;70.64;148203.19;5091914;28;20188;-56
2024/01/14 07:33:48;;;;;;;23.30;19.77;;;;;;;9.70;66.99;148480.94;5091658;28;20191;-55
2024/01/14 07:36:17;;;;;;;21.03;18.27;;;;;;;10.50;62.54;148681.91;5091653;28;20559;-57
2024/01/14 07:38:44;;;;;;;18.87;17.03;;;;;;;10.56;58.23;148694.56;5091621;28;20188;-56
2024/01/14 07:41:12;;;;;;;24.23;18.07;;;;;;;10.58;57.81;148699.59;5091650;28;20188;-57
2024/01/14 07:43:40;;;;;;;20.33;17.57;;;;;;;11.19;55.59;148853.84;5091834;28;20292;-56
2024/01/14 07:46:07;;;;;;;19.00;16.90;;;;;;;10.72;54.51;148735.00;5091497;28;20200;-56
2024/01/14 07:48:34;;;;;;;18.37;16.67;;;;;;;10.22;56.31;148609.88;5091509;28;20184;-56
2024/01/14 07:51:01;;;;;;;17.77;15.97;;;;;;;10.61;53.63;148707.19;5091821;28;20184;-58
2024/01/14 07:53:30;;;;;;;17.80;15.97;;;;;;;11.95;52.27;149043.66;5091847;28;20660;-56
2024/01/14 07:55:57;;;;;;;18.67;16.87;;;;;;;12.81;49.46;149258.88;5091266;28;20308;-56
2024/01/14 07:58:24;;;;;;;16.93;15.33;;;;;;;13.23;47.16;149365.28;5091509;28;20188;-56
2024/01/14 08:00:51;;;;;;;19.73;16.97;;;;;;;12.19;48.40;149103.13;5091523;28;20206;-56
2024/01/14 08:03:18;;;;;;;18.63;16.73;;;;;;;11.27;49.58;148874.09;5091468;28;20261;-55
2024/01/14 08:05:45;;;;;;;18.70;15.57;;;;;;;11.27;49.54;148872.81;5091777;28;20279;-57
2024/01/14 08:08:13;;;;;;;17.93;15.73;;;;;;;11.08;51.51;148826.00;5091505;28;20192;-56
2024/01/14 08:10:41;;;;;;;20.13;14.93;;;;;;;11.17;49.75;148847.50;5091433;28;20195;-56
2024/01/14 08:13:08;;;;;;;18.53;14.90;;;;;;;11.64;49.41;148965.16;5091376;28;20230;-56
2024/01/14 08:15:35;;;;;;;17.60;15.80;;;;;;;11.31;49.36;148884.22;5091775;28;20214;-56
2024/01/14 08:18:03;;;;;;;20.50;15.97;;;;;;;11.96;48.35;149046.19;5091630;28;20619;-55
2024/01/14 08:20:31;;;;;;;18.37;15.87;;;;;;;11.93;48.51;149038.56;5091401;28;20192;-56
2024/01/14 08:22:58;;;;;;;23.13;15.50;;;;;;;12.58;48.28;149200.59;5091246;28;20307;-57
2024/01/14 08:25:25;;;;;;;17.67;15.00;;;;;;;12.34;47.92;149141.13;5091632;28;20658;-55
2024/01/14 08:27:54;;;;;;;15.43;14.23;;;;;;;12.77;47.50;149249.97;5092079;28;20184;-55
2024/01/14 08:30:21;;;;;;;17.73;16.00;;;;;;;13.05;47.25;149318.38;5091311;28;20192;-56
2024/01/14 08:32:51;;;;;;;22.67;16.27;;;;;;;12.40;47.08;149156.28;5092764;28;20650;-56
2024/01/14 08:35:18;;;;;;;19.37;17.03;;;;;;;13.01;46.76;149309.50;5095078;28;20188;-56
2024/01/14 08:37:46;;;;;;;22.67;17.47;;;;;;;11.97;47.61;149048.69;5095240;28;20611;-55
2024/01/14 08:40:13;;;;;;;17.90;16.20;;;;;;;12.99;47.58;149304.41;5095140;28;20692;-57
2024/01/14 08:42:44;;;;;;;18.60;16.87;;;;;;;13.86;45.89;149522.41;5094757;28;20204;-56
2024/01/14 08:45:12;;;;;;;21.43;17.57;;;;;;;12.61;46.96;149208.19;5095099;28;20642;-55
2024/01/14 08:47:40;;;;;;;24.57;18.20;;;;;;;11.71;49.36;148982.88;5094729;28;20188;-56
2024/01/14 08:50:10;;;;;;;19.63;17.50;;;;;;;10.79;50.82;148752.69;5094716;28;20187;-55
2024/01/14 08:52:38;;;;;;;21.70;17.93;;;;;;;11.61;50.83;148957.56;5094719;28;20184;-55
2024/01/14 08:55:05;;;;;;;20.43;18.10;;;;;;;12.03;50.45;149063.91;5094633;28;20705;-56
2024/01/14 08:57:32;;;;;;;18.33;16.57;;;;;;;14.12;46.26;149588.31;5094911;28;20238;-55
2024/01/14 08:59:59;;;;;;;19.40;16.63;;;;;;;13.87;46.59;149523.66;5094871;28;20707;-57
2024/01/14 09:02:27;;;;;;;18.93;17.13;;;;;;;14.14;45.33;149592.09;5094732;28;20200;-57
2024/01/14 09:04:55;;;;;;;19.43;17.53;;;;;;;13.87;45.10;149524.94;5094530;28;20254;-56
2024/01/14 09:07:21;;;;;;;17.80;15.90;;;;;;;13.66;46.34;149472.94;5094768;28;20707;-58
2024/01/14 09:09:49;;;;;;;18.27;16.37;;;;;;;13.23;46.46;149365.28;5094350;28;20258;-56
2024/01/14 09:12:16;;;;;;;18.70;16.83;;;;;;;13.11;46.55;149334.84;5094308;28;20191;-55
2024/01/14 09:14:43;;;;;;;19.57;16.67;;;;;;;14.30;45.52;149631.41;5094637;28;20620;-56
2024/01/14 09:17:11;;;;;;;19.17;17.17;;;;;;;13.23;45.65;149365.28;5094118;28;20185;-56
2024/01/14 09:19:40;;;;;;;23.03;17.67;;;;;;;11.62;48.73;148960.09;5094161;28;20275;-56
2024/01/14 09:22:07;;;;;;;23.53;17.20;;;;;;;11.21;50.14;148857.63;5094127;28;20188;-56
2024/01/14 09:24:34;;;;;;;20.50;16.83;;;;;;;10.47;52.36;148674.34;5094088;28;20184;-55
2024/01/14 09:27:03;;;;;;;24.87;17.40;;;;;;;10.67;52.36;148722.34;5093908;28;20657;-55
2024/01/14 09:29:30;;;;;;;19.93;17.30;;;;;;;10.78;52.82;148750.13;5093957;28;20188;-55
2024/01/14 09:31:57;;;;;;;18.33;16.30;;;;;;;10.77;53.13;148748.91;5094211;28;20192;-55
2024/01/14 09:34:23;;;;;;;16.50;14.90;;;;;;;10.50;53.57;148681.91;5094205;28;20716;-55
2024/01/14 09:36:52;;;;;;;19.27;16.20;;;;;;;11.15;52.46;148843.75;5093749;28;20184;-55
2024/01/14 09:39:19;;;;;;;17.63;15.93;;;;;;;11.64;51.22;148965.16;5093775;28;20246;-56
2024/01/14 09:41:54;;;;;;;15.90;14.27;;;;;;;12.28;49.70;149125.91;5093975;28;20247;-56
2024/01/14 09:44:21;;;;;;;17.27;13.47;;;;;;;12.67;48.37;149224.66;5092739;28;20628;-57
2024/01/14 09:46:49;;;;;;;17.27;13.83;;;;;;;13.25;47.38;149370.34;5093574;28;20184;-56
2024/01/14 09:49:18;;;;;;;14.90;13.57;;;;;;;13.82;46.68;149510.97;5093927;28;20234;-56
2024/01/14 09:51:49;;;;;;;16.37;14.90;;;;;;;14.34;45.89;149641.56;5093542;28;20180;-56
2024/01/14 09:54:18;;;;;;;16.33;14.83;;;;;;;15.03;45.07;149816.56;5093556;28;20531;-55
2024/01/14 09:56:46;;;;;;;17.47;14.20;;;;;;;15.29;43.13;149880.00;5093539;28;20184;-56
2024/01/14 09:59:17;;;;;;;14.87;13.67;;;;;;;14.72;43.99;149736.69;5093630;28;20253;-57
2024/01/14 10:01:45;;;;;;;13.33;12.20;;;;;;;14.43;43.80;149664.38;5093611;28;20719;-56
2024/01/14 10:04:17;;;;;;;11.67;10.93;;;;;;;14.28;43.35;149627.59;5093254;28;20200;-56
2024/01/14 10:06:44;;;;;;;11.60;10.60;;;;;;;14.10;43.93;149583.22;5093517;28;20654;-55
2024/01/14 10:09:11;;;;;;;11.87;10.77;;;;;;;14.34;42.51;149641.56;5093495;28;20244;-56
2024/01/14 10:11:39;;;;;;;10.80;10.17;;;;;;;13.73;42.91;149489.44;5093137;28;20181;-56
2024/01/14 10:14:06;;;;;;;11.67;10.87;;;;;;;14.23;42.75;149614.91;5093436;28;20180;-56
2024/01/14 10:16:38;;;;;;;11.67;10.87;;;;;;;14.30;42.66;149632.63;5093097;28;20188;-56
2024/01/14 10:19:06;;;;;;;10.80;10.13;;;;;;;13.35;42.80;149394.44;5093029;28;20218;-55
2024/01/14 10:21:33;;;;;;;10.43;9.57;;;;;;;12.58;44.14;149201.88;5093347;28;20233;-56
2024/01/14 10:24:01;;;;;;;9.67;9.07;;;;;;;11.78;45.03;149001.91;5092838;28;20219;-56
2024/01/14 10:26:28;;;;;;;10.07;9.40;;;;;;;11.63;45.06;148963.88;5092783;28;20196;-56
2024/01/14 10:29:01;;;;;;;9.13;8.43;;;;;;;11.85;44.52;149019.59;5092797;28;20237;-56
2024/01/14 10:31:31;;;;;;;9.17;8.60;;;;;;;12.08;44.92;149075.28;5093067;28;20619;-58
2024/01/14 10:34:02;;;;;;;9.43;8.73;;;;;;;12.39;44.69;149152.50;5093026;28;20184;-55
2024/01/14 10:36:29;;;;;;;9.80;9.20;;;;;;;12.05;45.01;149068.94;5093008;28;20567;-56
2024/01/14 10:38:59;;;;;;;10.53;9.63;;;;;;;12.30;45.10;149132.25;5092586;28;20187;-56
2024/01/14 10:41:27;;;;;;;8.57;8.07;;;;;;;11.76;45.44;148995.56;5092746;28;20200;-56
2024/01/14 10:43:54;;;;;;;9.60;8.87;;;;;;;11.87;45.44;149024.69;5092750;28;20200;-57
2024/01/14 10:46:23;;;;;;;9.40;8.80;;;;;;;13.40;43.87;149405.81;5092693;28;20675;-55
2024/01/14 10:48:53;;;;;;;10.43;9.67;;;;;;;12.08;45.67;149076.56;5092736;28;20639;-56
2024/01/14 10:51:22;;;;;;;9.97;9.23;;;;;;;11.46;46.14;148922.13;5092746;28;20408;-56
2024/01/14 10:53:59;;;;;;;10.30;9.33;;;;;;;12.11;45.60;149084.16;5092187;28;20180;-55
2024/01/14 10:56:32;;;;;;;9.70;9.10;;;;;;;11.82;45.92;149010.75;5092083;28;20184;-55
2024/01/14 10:59:01;;;;;;;9.30;8.70;;;;;;;11.69;46.16;148979.06;5092612;28;20184;-56
2024/01/14 11:01:32;;;;;;;10.83;9.37;;;;;;;11.75;46.53;148993.06;5092227;28;20271;-57
2024/01/14 11:04:01;;;;;;;10.33;9.63;;;;;;;11.93;46.43;149038.56;5092065;28;20200;-56
2024/01/14 11:06:29;;;;;;;10.30;9.50;;;;;;;11.49;47.16;148927.22;5092433;28;20257;-56
2024/01/14 11:08:56;;;;;;;9.87;9.27;;;;;;;11.78;46.43;149001.91;5092174;28;20279;-56